sensor_id;sensor_type;location;lat;lon;timestamp;pressure;altitude;pressure_sealevel;temperature
64470;BMP280;50854;48.538;14.352;2022-09-03T00:00:21;93439.75;;;8.07
64470;BMP280;50854;48.538;14.352;2022-09-03T00:01:39;93440.78;;;8.04
64470;BMP280;50854;48.538;14.352;2022-09-03T00:02:43;93445.81;;;7.89
64470;BMP280;50854;48.538;14.352;2022-09-03T00:03:50;93438.69;;;7.91
64470;BMP280;50854;48.538;14.352;2022-09-03T00:05:14;93445.25;;;7.96
64470;BMP280;50854;48.538;14.352;2022-09-03T00:06:23;93440.84;;;7.99
64470;BMP280;50854;48.538;14.352;2022-09-03T00:07:34;93435.38;;;8.04
64470;BMP280;50854;48.538;14.352;2022-09-03T00:08:53;93438.88;;;7.99
64470;BMP280;50854;48.538;14.352;2022-09-03T00:10:04;93440.84;;;7.99
64470;BMP280;50854;48.538;14.352;2022-09-03T00:12:37;93436.13;;;8.05
64470;BMP280;50854;48.538;14.352;2022-09-03T00:13:44;93438.06;;;8.04
64470;BMP280;50854;48.538;14.352;2022-09-03T00:15:50;93428.72;;;8.11
64470;BMP280;50854;48.538;14.352;2022-09-03T00:16:57;93434.53;;;8.15
64470;BMP280;50854;48.538;14.352;2022-09-03T00:18:05;93435.72;;;8.19
64470;BMP280;50854;48.538;14.352;2022-09-03T00:19:06;93434.19;;;8.24
64470;BMP280;50854;48.538;14.352;2022-09-03T00:20:26;93430.47;;;8.27
64470;BMP280;50854;48.538;14.352;2022-09-03T00:21:40;93437.91;;;8.21
64470;BMP280;50854;48.538;14.352;2022-09-03T00:22:45;93439.88;;;8.20
64470;BMP280;50854;48.538;14.352;2022-09-03T00:23:46;93442.09;;;8.16
64470;BMP280;50854;48.538;14.352;2022-09-03T00:24:48;93439.41;;;8.16
64470;BMP280;50854;48.538;14.352;2022-09-03T00:26:13;93442.78;;;8.22
64470;BMP280;50854;48.538;14.352;2022-09-03T00:27:18;93436.38;;;8.25
64470;BMP280;50854;48.538;14.352;2022-09-03T00:28:33;93431.22;;;8.27
64470;BMP280;50854;48.538;14.352;2022-09-03T00:29:38;93432.22;;;8.24
64470;BMP280;50854;48.538;14.352;2022-09-03T00:30:41;93429.31;;;8.22
64470;BMP280;50854;48.538;14.352;2022-09-03T00:31:47;93433.47;;;8.23
64470;BMP280;50854;48.538;14.352;2022-09-03T00:34:06;93442.09;;;8.16
64470;BMP280;50854;48.538;14.352;2022-09-03T00:35:15;93429.88;;;8.15
64470;BMP280;50854;48.538;14.352;2022-09-03T00:36:39;93436.72;;;8.16
64470;BMP280;50854;48.538;14.352;2022-09-03T00:37:43;93430.19;;;8.12
64470;BMP280;50854;48.538;14.352;2022-09-03T00:38:43;93435.25;;;8.15
64470;BMP280;50854;48.538;14.352;2022-09-03T00:39:44;93442.31;;;8.18
64470;BMP280;50854;48.538;14.352;2022-09-03T00:40:59;93440.66;;;8.15
64470;BMP280;50854;48.538;14.352;2022-09-03T00:46:12;93443.25;;;8.02
64470;BMP280;50854;48.538;14.352;2022-09-03T00:47:38;93441.50;;;8.05
64470;BMP280;50854;48.538;14.352;2022-09-03T00:50:08;93444.78;;;8.16
64470;BMP280;50854;48.538;14.352;2022-09-03T00:56:43;93435.47;;;8.17
64470;BMP280;50854;48.538;14.352;2022-09-03T00:59:35;93437.00;;;8.13
64470;BMP280;50854;48.538;14.352;2022-09-03T01:00:41;93439.31;;;8.03
64470;BMP280;50854;48.538;14.352;2022-09-03T01:01:50;93441.44;;;7.86
64470;BMP280;50854;48.538;14.352;2022-09-03T01:03:08;93438.09;;;7.80
64470;BMP280;50854;48.538;14.352;2022-09-03T01:04:25;93434.47;;;7.77
64470;BMP280;50854;48.538;14.352;2022-09-03T01:07:33;93429.94;;;7.85
64470;BMP280;50854;48.538;14.352;2022-09-03T01:08:53;93425.03;;;7.89
64470;BMP280;50854;48.538;14.352;2022-09-03T01:10:17;93432.53;;;7.96
64470;BMP280;50854;48.538;14.352;2022-09-03T01:11:32;93426.41;;;7.96
64470;BMP280;50854;48.538;14.352;2022-09-03T01:13:39;93425.97;;;7.92
64470;BMP280;50854;48.538;14.352;2022-09-03T01:16:34;93423.25;;;7.92
64470;BMP280;50854;48.538;14.352;2022-09-03T01:19:42;93425.03;;;7.89
64470;BMP280;50854;48.538;14.352;2022-09-03T01:26:34;93430.69;;;7.86
64470;BMP280;50854;48.538;14.352;2022-09-03T01:28:18;93436.06;;;7.86
64470;BMP280;50854;48.538;14.352;2022-09-03T01:30:26;93434.03;;;7.92
64470;BMP280;50854;48.538;14.352;2022-09-03T01:31:36;93427.88;;;7.97
64470;BMP280;50854;48.538;14.352;2022-09-03T01:34:37;93439.16;;;7.95
64470;BMP280;50854;48.538;14.352;2022-09-03T01:35:48;93434.97;;;8.00
64470;BMP280;50854;48.538;14.352;2022-09-03T01:38:31;93439.06;;;7.77
64470;BMP280;50854;48.538;14.352;2022-09-03T01:42:41;93431.38;;;7.67
64470;BMP280;50854;48.538;14.352;2022-09-03T01:52:47;93430.31;;;7.71
64470;BMP280;50854;48.538;14.352;2022-09-03T01:55:32;93424.94;;;7.71
64470;BMP280;50854;48.538;14.352;2022-09-03T01:58:13;93433.84;;;7.60
64470;BMP280;50854;48.538;14.352;2022-09-03T01:59:21;93425.59;;;7.58
64470;BMP280;50854;48.538;14.352;2022-09-03T02:00:24;93424.84;;;7.57
64470;BMP280;50854;48.538;14.352;2022-09-03T02:01:29;93427.75;;;7.59
64470;BMP280;50854;48.538;14.352;2022-09-03T02:02:31;93426.09;;;7.56
64470;BMP280;50854;48.538;14.352;2022-09-03T02:03:36;93431.22;;;7.54
64470;BMP280;50854;48.538;14.352;2022-09-03T02:04:37;93426.09;;;7.56
64470;BMP280;50854;48.538;14.352;2022-09-03T02:05:37;93426.09;;;7.56
64470;BMP280;50854;48.538;14.352;2022-09-03T02:06:38;93423.34;;;7.62
64470;BMP280;50854;48.538;14.352;2022-09-03T02:07:43;93422.31;;;7.65
64470;BMP280;50854;48.538;14.352;2022-09-03T02:08:44;93419.88;;;7.67
64470;BMP280;50854;48.538;14.352;2022-09-03T02:09:44;93423.78;;;7.66
64470;BMP280;50854;48.538;14.352;2022-09-03T02:10:48;93428.44;;;7.65
64470;BMP280;50854;48.538;14.352;2022-09-03T02:11:54;93432.59;;;7.61
64470;BMP280;50854;48.538;14.352;2022-09-03T02:13:06;93422.69;;;7.50
64470;BMP280;50854;48.538;14.352;2022-09-03T02:14:08;93427.59;;;7.52
64470;BMP280;50854;48.538;14.352;2022-09-03T02:15:12;93430.28;;;7.52
64470;BMP280;50854;48.538;14.352;2022-09-03T02:16:15;93427.66;;;7.40
64470;BMP280;50854;48.538;14.352;2022-09-03T02:17:16;93430.34;;;7.40
64470;BMP280;50854;48.538;14.352;2022-09-03T02:18:19;93433.81;;;7.35
64470;BMP280;50854;48.538;14.352;2022-09-03T02:19:21;93433.53;;;7.39
64470;BMP280;50854;48.538;14.352;2022-09-03T02:20:26;93424.22;;;7.40
64470;BMP280;50854;48.538;14.352;2022-09-03T02:21:34;93431.09;;;7.41
64470;BMP280;50854;48.538;14.352;2022-09-03T02:22:37;93429.16;;;7.36
64470;BMP280;50854;48.538;14.352;2022-09-03T02:23:39;93426.28;;;7.28
64470;BMP280;50854;48.538;14.352;2022-09-03T02:24:40;93428.34;;;7.17
64470;BMP280;50854;48.538;14.352;2022-09-03T02:25:47;93428.66;;;7.02
64470;BMP280;50854;48.538;14.352;2022-09-03T02:26:49;93429.66;;;7.04
64470;BMP280;50854;48.538;14.352;2022-09-03T02:27:50;93427.13;;;7.12
64470;BMP280;50854;48.538;14.352;2022-09-03T02:28:52;93425.66;;;7.17
64470;BMP280;50854;48.538;14.352;2022-09-03T02:29:53;93426.63;;;7.14
64470;BMP280;50854;48.538;14.352;2022-09-03T02:30:54;93435.41;;;7.14
64470;BMP280;50854;48.538;14.352;2022-09-03T02:31:57;93428.13;;;7.09
64470;BMP280;50854;48.538;14.352;2022-09-03T02:32:58;93428.84;;;7.15
64470;BMP280;50854;48.538;14.352;2022-09-03T02:33:59;93431.78;;;7.11
64470;BMP280;50854;48.538;14.352;2022-09-03T02:34:59;93432.78;;;7.08
64470;BMP280;50854;48.538;14.352;2022-09-03T02:36:00;93432.59;;;7.01
64470;BMP280;50854;48.538;14.352;2022-09-03T02:37:11;93429.69;;;6.93
64470;BMP280;50854;48.538;14.352;2022-09-03T02:38:16;93434.63;;;6.89
64470;BMP280;50854;48.538;14.352;2022-09-03T02:39:17;93428.50;;;6.94
64470;BMP280;50854;48.538;14.352;2022-09-03T02:40:18;93429.94;;;6.95
64470;BMP280;50854;48.538;14.352;2022-09-03T02:41:18;93425.56;;;6.92
64470;BMP280;50854;48.538;14.352;2022-09-03T02:42:19;93427.75;;;6.88
64470;BMP280;50854;48.538;14.352;2022-09-03T02:44:43;93435.88;;;6.82
64470;BMP280;50854;48.538;14.352;2022-09-03T02:45:47;93438.56;;;6.82
64470;BMP280;50854;48.538;14.352;2022-09-03T02:46:57;93441.00;;;6.86
64470;BMP280;50854;48.538;14.352;2022-09-03T02:47:59;93434.09;;;6.96
64470;BMP280;50854;48.538;14.352;2022-09-03T02:48:59;93434.78;;;7.02
64470;BMP280;50854;48.538;14.352;2022-09-03T02:50:00;93432.59;;;7.01
64470;BMP280;50854;48.538;14.352;2022-09-03T02:51:00;93435.75;;;7.05
64470;BMP280;50854;48.538;14.352;2022-09-03T02:52:07;93435.47;;;7.08
64470;BMP280;50854;48.538;14.352;2022-09-03T02:53:11;93434.94;;;7.16
64470;BMP280;50854;48.538;14.352;2022-09-03T02:54:12;93428.59;;;7.13
64470;BMP280;50854;48.538;14.352;2022-09-03T02:55:13;93432.34;;;7.04
64470;BMP280;50854;48.538;14.352;2022-09-03T02:56:13;93429.22;;;6.95
64470;BMP280;50854;48.538;14.352;2022-09-03T02:57:15;93438.25;;;6.92
64470;BMP280;50854;48.538;14.352;2022-09-03T02:58:16;93427.78;;;6.94
64470;BMP280;50854;48.538;14.352;2022-09-03T02:59:16;93424.81;;;6.97
64470;BMP280;50854;48.538;14.352;2022-09-03T03:00:17;93422.56;;;7.01
64470;BMP280;50854;48.538;14.352;2022-09-03T03:01:17;93426.22;;;7.09
64470;BMP280;50854;48.538;14.352;2022-09-03T03:02:18;93423.22;;;7.13
64470;BMP280;50854;48.538;14.352;2022-09-03T03:03:18;93420.59;;;7.07
64470;BMP280;50854;48.538;14.352;2022-09-03T03:04:19;93427.13;;;7.12
64470;BMP280;50854;48.538;14.352;2022-09-03T03:05:25;93424.50;;;7.06
64470;BMP280;50854;48.538;14.352;2022-09-03T03:06:27;93423.56;;;6.98
64470;BMP280;50854;48.538;14.352;2022-09-03T03:07:33;93420.91;;;6.93
64470;BMP280;50854;48.538;14.352;2022-09-03T03:08:34;93420.19;;;6.92
64470;BMP280;50854;48.538;14.352;2022-09-03T03:09:34;93427.25;;;6.95
64470;BMP280;50854;48.538;14.352;2022-09-03T03:10:35;93420.66;;;6.96
64470;BMP280;50854;48.538;14.352;2022-09-03T03:11:36;93421.91;;;6.95
64470;BMP280;50854;48.538;14.352;2022-09-03T03:12:36;93423.34;;;6.96
64470;BMP280;50854;48.538;14.352;2022-09-03T03:13:37;93422.84;;;6.98
64470;BMP280;50854;48.538;14.352;2022-09-03T03:14:37;93417.94;;;7.02
64470;BMP280;50854;48.538;14.352;2022-09-03T03:15:38;93419.22;;;6.90
64470;BMP280;50854;48.538;14.352;2022-09-03T03:16:38;93415.75;;;7.00
64470;BMP280;50854;48.538;14.352;2022-09-03T03:17:38;93422.06;;;7.03
64470;BMP280;50854;48.538;14.352;2022-09-03T03:18:39;93416.22;;;6.99
64470;BMP280;50854;48.538;14.352;2022-09-03T03:19:39;93420.44;;;6.94
64470;BMP280;50854;48.538;14.352;2022-09-03T03:20:40;93419.22;;;6.95
64470;BMP280;50854;48.538;14.352;2022-09-03T03:21:41;93411.38;;;6.97
64470;BMP280;50854;48.538;14.352;2022-09-03T03:22:41;93417.19;;;7.01
64470;BMP280;50854;48.538;14.352;2022-09-03T03:23:42;93421.41;;;6.97
64470;BMP280;50854;48.538;14.352;2022-09-03T03:24:43;93409.44;;;6.92
64470;BMP280;50854;48.538;14.352;2022-09-03T03:25:43;93410.16;;;6.93
64470;BMP280;50854;48.538;14.352;2022-09-03T03:26:44;93415.56;;;6.87
64470;BMP280;50854;48.538;14.352;2022-09-03T03:27:45;93417.50;;;6.92
64470;BMP280;50854;48.538;14.352;2022-09-03T03:28:47;93411.16;;;6.95
64470;BMP280;50854;48.538;14.352;2022-09-03T03:29:47;93418.47;;;6.95
64470;BMP280;50854;48.538;14.352;2022-09-03T03:30:49;93415.09;;;6.89
64470;BMP280;50854;48.538;14.352;2022-09-03T03:31:50;93412.69;;;6.85
64470;BMP280;50854;48.538;14.352;2022-09-03T03:32:52;93415.38;;;6.85
64470;BMP280;50854;48.538;14.352;2022-09-03T03:33:55;93420.75;;;6.85
64470;BMP280;50854;48.538;14.352;2022-09-03T03:34:55;93410.00;;;6.85
64470;BMP280;50854;48.538;14.352;2022-09-03T03:35:56;93407.34;;;6.79
64470;BMP280;50854;48.538;14.352;2022-09-03T03:36:56;93413.50;;;6.69
64470;BMP280;50854;48.538;14.352;2022-09-03T03:37:57;93414.47;;;6.66
64470;BMP280;50854;48.538;14.352;2022-09-03T03:38:59;93424.25;;;6.69
64470;BMP280;50854;48.538;14.352;2022-09-03T03:40:00;93420.56;;;6.72
64470;BMP280;50854;48.538;14.352;2022-09-03T03:41:16;93423.25;;;6.72
64470;BMP280;50854;48.538;14.352;2022-09-03T03:42:17;93420.50;;;6.77
64470;BMP280;50854;48.538;14.352;2022-09-03T03:43:17;93428.38;;;6.70
64470;BMP280;50854;48.538;14.352;2022-09-03T03:44:18;93428.59;;;6.72
64470;BMP280;50854;48.538;14.352;2022-09-03T03:45:19;93431.06;;;6.70
64470;BMP280;50854;48.538;14.352;2022-09-03T03:46:21;93429.84;;;6.65
64470;BMP280;50854;48.538;14.352;2022-09-03T03:47:22;93431.06;;;6.70
64470;BMP280;50854;48.538;14.352;2022-09-03T03:48:24;93425.72;;;6.64
64470;BMP280;50854;48.538;14.352;2022-09-03T03:49:25;93424.72;;;6.67
64470;BMP280;50854;48.538;14.352;2022-09-03T03:50:25;93422.50;;;6.71
64470;BMP280;50854;48.538;14.352;2022-09-03T03:51:27;93418.63;;;6.67
64470;BMP280;50854;48.538;14.352;2022-09-03T03:52:27;93424.00;;;6.67
64470;BMP280;50854;48.538;14.352;2022-09-03T03:53:29;93423.28;;;6.61
64470;BMP280;50854;48.538;14.352;2022-09-03T03:54:29;93417.72;;;6.53
64470;BMP280;50854;48.538;14.352;2022-09-03T03:55:30;93419.25;;;6.43
64470;BMP280;50854;48.538;14.352;2022-09-03T03:56:30;93412.66;;;6.38
64470;BMP280;50854;48.538;14.352;2022-09-03T03:57:31;93418.25;;;6.46
64470;BMP280;50854;48.538;14.352;2022-09-03T03:58:32;93424.84;;;6.39
64470;BMP280;50854;48.538;14.352;2022-09-03T03:59:33;93419.47;;;6.39
64470;BMP280;50854;48.538;14.352;2022-09-03T04:00:33;93415.13;;;6.31
64470;BMP280;50854;48.538;14.352;2022-09-03T04:01:37;93419.03;;;6.30
64470;BMP280;50854;48.538;14.352;2022-09-03T04:02:37;93416.41;;;6.18
64470;BMP280;50854;48.538;14.352;2022-09-03T04:03:38;93420.28;;;6.23
64470;BMP280;50854;48.538;14.352;2022-09-03T04:04:39;93420.75;;;6.33
64470;BMP280;50854;48.538;14.352;2022-09-03T04:05:39;93416.56;;;6.37
64470;BMP280;50854;48.538;14.352;2022-09-03T04:06:39;93414.56;;;6.49
64470;BMP280;50854;48.538;14.352;2022-09-03T04:07:40;93419.91;;;6.54
64470;BMP280;50854;48.538;14.352;2022-09-03T04:08:42;93415.50;;;6.57
64470;BMP280;50854;48.538;14.352;2022-09-03T04:09:42;93416.22;;;6.63
64470;BMP280;50854;48.538;14.352;2022-09-03T04:10:43;93417.41;;;6.68
64470;BMP280;50854;48.538;14.352;2022-09-03T04:11:43;93422.50;;;6.71
64470;BMP280;50854;48.538;14.352;2022-09-03T04:12:43;93420.78;;;6.74
64470;BMP280;50854;48.538;14.352;2022-09-03T04:13:45;93415.69;;;6.70
64470;BMP280;50854;48.538;14.352;2022-09-03T04:14:45;93413.00;;;6.70
64470;BMP280;50854;48.538;14.352;2022-09-03T04:15:46;93416.19;;;6.69
64470;BMP280;50854;48.538;14.352;2022-09-03T04:16:46;93418.88;;;6.69
64470;BMP280;50854;48.538;14.352;2022-09-03T04:17:47;93427.16;;;6.71
64470;BMP280;50854;48.538;14.352;2022-09-03T04:18:47;93427.59;;;6.75
64470;BMP280;50854;48.538;14.352;2022-09-03T04:19:48;93431.97;;;6.78
64470;BMP280;50854;48.538;14.352;2022-09-03T04:20:49;93432.25;;;6.74
64470;BMP280;50854;48.538;14.352;2022-09-03T04:21:50;93429.06;;;6.76
64470;BMP280;50854;48.538;14.352;2022-09-03T04:22:50;93431.97;;;6.78
64470;BMP280;50854;48.538;14.352;2022-09-03T04:23:51;93440.03;;;6.78
64470;BMP280;50854;48.538;14.352;2022-09-03T04:24:52;93440.28;;;6.80
64470;BMP280;50854;48.538;14.352;2022-09-03T04:25:53;93440.50;;;6.82
64470;BMP280;50854;48.538;14.352;2022-09-03T04:26:53;93443.69;;;6.86
64470;BMP280;50854;48.538;14.352;2022-09-03T04:27:54;93447.78;;;6.87
64470;BMP280;50854;48.538;14.352;2022-09-03T04:28:54;93440.34;;;6.69
64470;BMP280;50854;48.538;14.352;2022-09-03T04:29:54;93444.72;;;6.72
64470;BMP280;50854;48.538;14.352;2022-09-03T04:31:03;93447.97;;;6.59
64470;BMP280;50854;48.538;14.352;2022-09-03T04:32:03;93435.34;;;6.37
64470;BMP280;50854;48.538;14.352;2022-09-03T04:33:23;93437.47;;;6.56
64470;BMP280;50854;48.538;14.352;2022-09-03T04:34:24;93430.59;;;6.66
64470;BMP280;50854;48.538;14.352;2022-09-03T04:35:25;93430.34;;;6.69
64470;BMP280;50854;48.538;14.352;2022-09-03T04:36:29;93432.75;;;6.73
64470;BMP280;50854;48.538;14.352;2022-09-03T04:37:31;93435.41;;;6.84
64470;BMP280;50854;48.538;14.352;2022-09-03T04:38:33;93425.06;;;6.88
64470;BMP280;50854;48.538;14.352;2022-09-03T04:39:34;93429.47;;;6.91
64470;BMP280;50854;48.538;14.352;2022-09-03T04:40:34;93433.63;;;6.92
64470;BMP280;50854;48.538;14.352;2022-09-03T04:41:34;93430.81;;;7.09
64470;BMP280;50854;48.538;14.352;2022-09-03T04:42:36;93438.84;;;7.20
64470;BMP280;50854;48.538;14.352;2022-09-03T04:43:36;93438.69;;;7.37
64470;BMP280;50854;48.538;14.352;2022-09-03T04:44:37;93436.59;;;7.54
64470;BMP280;50854;48.538;14.352;2022-09-03T04:45:37;93435.81;;;7.59
64470;BMP280;50854;48.538;14.352;2022-09-03T04:46:38;93443.09;;;7.64
64470;BMP280;50854;48.538;14.352;2022-09-03T04:47:39;93449.63;;;7.75
64470;BMP280;50854;48.538;14.352;2022-09-03T04:48:39;93445.97;;;7.96
64470;BMP280;50854;48.538;14.352;2022-09-03T04:49:40;93447.94;;;8.20
64470;BMP280;50854;48.538;14.352;2022-09-03T04:50:40;93443.47;;;8.47
64470;BMP280;50854;48.538;14.352;2022-09-03T04:51:41;93445.97;;;8.64
64470;BMP280;50854;48.538;14.352;2022-09-03T04:52:42;93443.78;;;8.81
64470;BMP280;50854;48.538;14.352;2022-09-03T04:53:45;93448.31;;;9.05
64470;BMP280;50854;48.538;14.352;2022-09-03T04:54:46;93449.38;;;9.34
64470;BMP280;50854;48.538;14.352;2022-09-03T04:55:46;93453.28;;;9.65
64470;BMP280;50854;48.538;14.352;2022-09-03T04:56:46;93450.16;;;9.75
64470;BMP280;50854;48.538;14.352;2022-09-03T04:57:47;93455.69;;;9.95
64470;BMP280;50854;48.538;14.352;2022-09-03T04:58:52;93461.50;;;9.99
64470;BMP280;50854;48.538;14.352;2022-09-03T04:59:52;93454.47;;;10.10
64470;BMP280;50854;48.538;14.352;2022-09-03T05:00:53;93459.84;;;10.23
64470;BMP280;50854;48.538;14.352;2022-09-03T05:01:53;93468.78;;;10.44
64470;BMP280;50854;48.538;14.352;2022-09-03T05:02:59;93470.38;;;10.74
64470;BMP280;50854;48.538;14.352;2022-09-03T05:04:00;93473.97;;;10.42
64470;BMP280;50854;48.538;14.352;2022-09-03T05:05:01;93474.97;;;10.66
64470;BMP280;50854;48.538;14.352;2022-09-03T05:06:02;93473.47;;;10.91
64470;BMP280;50854;48.538;14.352;2022-09-03T05:07:05;93475.59;;;11.06
64470;BMP280;50854;48.538;14.352;2022-09-03T05:08:05;93465.50;;;11.06
64470;BMP280;50854;48.538;14.352;2022-09-03T05:09:06;93463.94;;;11.32
64470;BMP280;50854;48.538;14.352;2022-09-03T05:10:08;93464.94;;;11.42
64470;BMP280;50854;48.538;14.352;2022-09-03T05:11:09;93465.81;;;11.65
64470;BMP280;50854;48.538;14.352;2022-09-03T05:12:09;93460.63;;;11.96
64470;BMP280;50854;48.538;14.352;2022-09-03T05:13:10;93462.84;;;12.05
64470;BMP280;50854;48.538;14.352;2022-09-03T05:14:10;93469.81;;;12.21
64470;BMP280;50854;48.538;14.352;2022-09-03T05:15:11;93463.88;;;12.30
64470;BMP280;50854;48.538;14.352;2022-09-03T05:16:12;93467.44;;;12.61
64470;BMP280;50854;48.538;14.352;2022-09-03T05:17:12;93468.81;;;12.91
64470;BMP280;50854;48.538;14.352;2022-09-03T05:18:13;93469.75;;;13.16
64470;BMP280;50854;48.538;14.352;2022-09-03T05:19:14;93472.81;;;13.28
64470;BMP280;50854;48.538;14.352;2022-09-03T05:20:15;93466.13;;;13.59
64470;BMP280;50854;48.538;14.352;2022-09-03T05:21:17;93468.50;;;13.63
64470;BMP280;50854;48.538;14.352;2022-09-03T05:22:18;93470.13;;;13.74
64470;BMP280;50854;48.538;14.352;2022-09-03T05:23:20;93468.34;;;13.76
64470;BMP280;50854;48.538;14.352;2022-09-03T05:24:21;93453.63;;;13.79
64470;BMP280;50854;48.538;14.352;2022-09-03T05:25:23;93465.56;;;13.91
64470;BMP280;50854;48.538;14.352;2022-09-03T05:26:26;93469.00;;;13.84
64470;BMP280;50854;48.538;14.352;2022-09-03T05:27:26;93473.34;;;13.95
64470;BMP280;50854;48.538;14.352;2022-09-03T05:28:28;93475.50;;;14.04
64470;BMP280;50854;48.538;14.352;2022-09-03T05:29:29;93470.78;;;14.12
64470;BMP280;50854;48.538;14.352;2022-09-03T05:30:30;93472.91;;;14.29
64470;BMP280;50854;48.538;14.352;2022-09-03T05:31:30;93469.78;;;14.40
64470;BMP280;50854;48.538;14.352;2022-09-03T05:32:31;93469.56;;;14.46
64470;BMP280;50854;48.538;14.352;2022-09-03T05:33:36;93471.38;;;14.51
64470;BMP280;50854;48.538;14.352;2022-09-03T05:34:38;93470.25;;;14.62
64470;BMP280;50854;48.538;14.352;2022-09-03T05:35:38;93464.41;;;14.73
64470;BMP280;50854;48.538;14.352;2022-09-03T05:36:40;93473.66;;;14.70
64470;BMP280;50854;48.538;14.352;2022-09-03T05:37:41;93475.72;;;14.86
64470;BMP280;50854;48.538;14.352;2022-09-03T05:38:41;93476.88;;;15.08
64470;BMP280;50854;48.538;14.352;2022-09-03T05:39:42;93481.84;;;15.27
64470;BMP280;50854;48.538;14.352;2022-09-03T05:40:42;93483.81;;;15.51
64470;BMP280;50854;48.538;14.352;2022-09-03T05:41:43;93488.53;;;15.76
64470;BMP280;50854;48.538;14.352;2022-09-03T05:42:43;93491.03;;;15.81
64470;BMP280;50854;48.538;14.352;2022-09-03T05:43:46;93484.72;;;16.13
64470;BMP280;50854;48.538;14.352;2022-09-03T05:44:46;93480.22;;;16.26
64470;BMP280;50854;48.538;14.352;2022-09-03T05:45:48;93477.69;;;16.20
64470;BMP280;50854;48.538;14.352;2022-09-03T05:46:49;93484.44;;;16.36
64470;BMP280;50854;48.538;14.352;2022-09-03T05:47:50;93483.16;;;16.37
64470;BMP280;50854;48.538;14.352;2022-09-03T05:48:51;93483.50;;;16.68
64470;BMP280;50854;48.538;14.352;2022-09-03T05:49:51;93481.09;;;16.72
64470;BMP280;50854;48.538;14.352;2022-09-03T05:51:18;93486.03;;;17.10
64470;BMP280;50854;48.538;14.352;2022-09-03T05:52:18;93480.16;;;17.24
64470;BMP280;50854;48.538;14.352;2022-09-03T05:53:20;93481.28;;;17.47
64470;BMP280;50854;48.538;14.352;2022-09-03T05:54:21;93483.91;;;17.74
64470;BMP280;50854;48.538;14.352;2022-09-03T05:55:21;93457.28;;;17.75
64470;BMP280;50854;48.538;14.352;2022-09-03T05:56:24;93458.19;;;18.06
64470;BMP280;50854;48.538;14.352;2022-09-03T05:57:25;93439.78;;;17.97
64470;BMP280;50854;48.538;14.352;2022-09-03T05:58:33;93442.94;;;18.03
64470;BMP280;50854;48.538;14.352;2022-09-03T05:59:33;93436.72;;;17.74
64470;BMP280;50854;48.538;14.352;2022-09-03T06:00:34;93444.44;;;16.93
64470;BMP280;50854;48.538;14.352;2022-09-03T06:01:41;93464.09;;;16.64
64470;BMP280;50854;48.538;14.352;2022-09-03T06:02:41;93472.81;;;16.80
64470;BMP280;50854;48.538;14.352;2022-09-03T06:03:43;93452.41;;;17.08
64470;BMP280;50854;48.538;14.352;2022-09-03T06:04:44;93456.78;;;17.30
64470;BMP280;50854;48.538;14.352;2022-09-03T06:05:51;93452.53;;;17.56
64470;BMP280;50854;48.538;14.352;2022-09-03T06:06:52;93457.88;;;17.83
64470;BMP280;50854;48.538;14.352;2022-09-03T06:07:52;93465.66;;;17.96
64470;BMP280;50854;48.538;14.352;2022-09-03T06:08:54;93450.28;;;18.20
64470;BMP280;50854;48.538;14.352;2022-09-03T06:09:55;93444.72;;;18.59
64470;BMP280;50854;48.538;14.352;2022-09-03T06:10:59;93441.66;;;18.64
64470;BMP280;50854;48.538;14.352;2022-09-03T06:12:00;93439.50;;;18.72
64470;BMP280;50854;48.538;14.352;2022-09-03T06:13:01;93435.66;;;18.97
64470;BMP280;50854;48.538;14.352;2022-09-03T06:14:05;93428.03;;;18.95
64470;BMP280;50854;48.538;14.352;2022-09-03T06:15:07;93426.53;;;19.13
64470;BMP280;50854;48.538;14.352;2022-09-03T06:16:08;93433.41;;;19.14
64470;BMP280;50854;48.538;14.352;2022-09-03T06:17:08;93441.63;;;19.45
64470;BMP280;50854;48.538;14.352;2022-09-03T06:18:10;93434.25;;;19.69
64470;BMP280;50854;48.538;14.352;2022-09-03T06:19:11;93437.94;;;19.52
64470;BMP280;50854;48.538;14.352;2022-09-03T06:20:13;93425.03;;;19.65
64470;BMP280;50854;48.538;14.352;2022-09-03T06:21:14;93413.44;;;19.76
64470;BMP280;50854;48.538;14.352;2022-09-03T06:22:14;93440.38;;;19.79
64470;BMP280;50854;48.538;14.352;2022-09-03T06:23:16;93446.94;;;19.53
64470;BMP280;50854;48.538;14.352;2022-09-03T06:24:19;93422.03;;;19.82
64470;BMP280;50854;48.538;14.352;2022-09-03T06:25:23;93419.84;;;20.02
64470;BMP280;50854;48.538;14.352;2022-09-03T06:26:24;93428.75;;;20.24
64470;BMP280;50854;48.538;14.352;2022-09-03T06:27:25;93434.22;;;20.24
64470;BMP280;50854;48.538;14.352;2022-09-03T06:28:25;93408.63;;;20.54
64470;BMP280;50854;48.538;14.352;2022-09-03T06:29:26;93408.84;;;20.46
64470;BMP280;50854;48.538;14.352;2022-09-03T06:30:27;93413.38;;;20.42
64470;BMP280;50854;48.538;14.352;2022-09-03T06:31:27;93434.59;;;20.41
64470;BMP280;50854;48.538;14.352;2022-09-03T06:32:28;93433.19;;;20.40
64470;BMP280;50854;48.538;14.352;2022-09-03T06:33:30;93435.00;;;20.71
64470;BMP280;50854;48.538;14.352;2022-09-03T06:34:30;93426.09;;;20.94
64470;BMP280;50854;48.538;14.352;2022-09-03T06:35:31;93428.09;;;21.16
64470;BMP280;50854;48.538;14.352;2022-09-03T06:36:31;93408.63;;;21.24
64470;BMP280;50854;48.538;14.352;2022-09-03T06:37:38;93400.00;;;21.18
64470;BMP280;50854;48.538;14.352;2022-09-03T06:38:39;93414.34;;;21.28
64470;BMP280;50854;48.538;14.352;2022-09-03T06:39:40;93410.03;;;21.25
64470;BMP280;50854;48.538;14.352;2022-09-03T06:40:40;93398.13;;;21.57
64470;BMP280;50854;48.538;14.352;2022-09-03T06:41:41;93379.84;;;21.62
64470;BMP280;50854;48.538;14.352;2022-09-03T06:42:41;93393.66;;;21.76
64470;BMP280;50854;48.538;14.352;2022-09-03T06:43:42;93386.28;;;21.67
64470;BMP280;50854;48.538;14.352;2022-09-03T06:44:42;93390.16;;;21.87
64470;BMP280;50854;48.538;14.352;2022-09-03T06:45:58;93406.41;;;21.83
64470;BMP280;50854;48.538;14.352;2022-09-03T06:46:59;93407.75;;;21.70
64470;BMP280;50854;48.538;14.352;2022-09-03T06:48:00;93402.13;;;21.80
64470;BMP280;50854;48.538;14.352;2022-09-03T06:49:01;93381.00;;;21.96
64470;BMP280;50854;48.538;14.352;2022-09-03T06:50:02;93392.25;;;21.88
64470;BMP280;50854;48.538;14.352;2022-09-03T06:51:07;93399.69;;;21.61
64470;BMP280;50854;48.538;14.352;2022-09-03T06:52:09;93381.41;;;21.53